WZZ9SJ EPKK-HEMA
Flight info
| Callsign | WZZ9SJ |
|---|---|
| Flight time | N/A |
| Altitude | 23000 |
| Route | REGTO T195 RAZEC N133 KEKED/N0435F330 DCT BADOR DCT ADORU/N0438F350 UL606 EKI UL854 KULAR UT39 TOMBI DCT DASNI M855 KOMEZ DCT RASDA A16 CVO L315 SOBEL V730 MAK |
| Aircraft | A21N/M-SDE1E2E3FGIJ1J4RWXY/LB1 |
Departure
| Time | 2026-05-05 13:24 |
|---|---|
| Airport | Kraków John Paul II International Airport (EPKK) |
Arrival
| Time | N/A |
|---|---|
| Airport | Marsa Alam International Airport (HEMA) |
| Time | Latitude | Longitude | Altitude | Speed | Heading |
|---|---|---|---|---|---|
| 2026-05-05 12:46 | 50.07416 | 19.80447 | 803 ft | 0 kts | 107° |
| 2026-05-05 13:14 | 50.07422 | 19.80432 | 803 ft | 2 kts | 128° |
| 2026-05-05 13:15 | 50.07428 | 19.80411 | 803 ft | 2 kts | 109° |
| 2026-05-05 13:15 | 50.07434 | 19.80390 | 803 ft | 2 kts | 116° |
| 2026-05-05 13:15 | 50.07440 | 19.80369 | 803 ft | 2 kts | 113° |
| 2026-05-05 13:15 | 50.07446 | 19.80349 | 803 ft | 1 kts | 114° |
| 2026-05-05 13:16 | 50.07448 | 19.80340 | 803 ft | 0 kts | 85° |
| 2026-05-05 13:16 | 50.07446 | 19.80331 | 803 ft | 1 kts | 61° |
| 2026-05-05 13:16 | 50.07446 | 19.80330 | 803 ft | 0 kts | 61° |
| 2026-05-05 13:21 | 50.07447 | 19.80333 | 803 ft | 2 kts | 61° |
| 2026-05-05 13:21 | 50.07477 | 19.80372 | 803 ft | 7 kts | 22° |
| 2026-05-05 13:22 | 50.07553 | 19.80412 | 803 ft | 13 kts | 16° |
| 2026-05-05 13:22 | 50.07643 | 19.80399 | 803 ft | 13 kts | 348° |
| 2026-05-05 13:22 | 50.07728 | 19.80370 | 803 ft | 11 kts | 347° |
| 2026-05-05 13:22 | 50.07804 | 19.80344 | 803 ft | 11 kts | 347° |
| 2026-05-05 13:23 | 50.07882 | 19.80318 | 803 ft | 11 kts | 348° |
| 2026-05-05 13:23 | 50.07963 | 19.80291 | 803 ft | 12 kts | 348° |
| 2026-05-05 13:23 | 50.08013 | 19.80230 | 803 ft | 9 kts | 264° |
| 2026-05-05 13:23 | 50.08011 | 19.80208 | 803 ft | 1 kts | 257° |
| 2026-05-05 13:24 | 50.07957 | 19.79857 | 803 ft | 71 kts | 257° |
| 2026-05-05 13:24 | 50.07807 | 19.78749 | 804 ft | 137 kts | 258° |
| 2026-05-05 13:24 | 50.07565 | 19.77015 | 896 ft | 182 kts | 255° |
| 2026-05-05 13:24 | 50.07308 | 19.75100 | 1578 ft | 184 kts | 254° |
| 2026-05-05 13:25 | 50.07035 | 19.73194 | 2393 ft | 182 kts | 252° |
| 2026-05-05 13:25 | 50.06768 | 19.71326 | 2949 ft | 182 kts | 252° |
| 2026-05-05 13:25 | 50.06471 | 19.69340 | 3244 ft | 194 kts | 250° |
| 2026-05-05 13:25 | 50.06192 | 19.68256 | 3381 ft | 198 kts | 234° |
| 2026-05-05 13:26 | 50.05064 | 19.67035 | 3613 ft | 210 kts | 192° |
| 2026-05-05 13:26 | 50.03543 | 19.67283 | 3848 ft | 233 kts | 161° |
| 2026-05-05 13:26 | 50.02175 | 19.68832 | 4155 ft | 257 kts | 137° |
| 2026-05-05 13:26 | 50.00971 | 19.70889 | 4655 ft | 265 kts | 137° |
| 2026-05-05 13:27 | 49.99693 | 19.72995 | 5321 ft | 267 kts | 137° |
| 2026-05-05 13:27 | 49.98438 | 19.75055 | 5999 ft | 268 kts | 137° |
| 2026-05-05 13:27 | 49.97161 | 19.77157 | 6652 ft | 270 kts | 137° |
| 2026-05-05 13:27 | 49.95866 | 19.79299 | 7269 ft | 274 kts | 137° |
| 2026-05-05 13:28 | 49.94564 | 19.81441 | 7848 ft | 278 kts | 138° |
| 2026-05-05 13:28 | 49.93205 | 19.83618 | 8434 ft | 281 kts | 139° |
| 2026-05-05 13:28 | 49.91837 | 19.85790 | 9015 ft | 284 kts | 139° |
| 2026-05-05 13:28 | 49.90464 | 19.87969 | 9580 ft | 287 kts | 139° |
| 2026-05-05 13:29 | 49.89056 | 19.90202 | 10148 ft | 291 kts | 139° |
| 2026-05-05 13:29 | 49.87640 | 19.92445 | 10539 ft | 300 kts | 138° |
| 2026-05-05 13:29 | 49.86138 | 19.94819 | 10792 ft | 314 kts | 138° |
| 2026-05-05 13:29 | 49.84582 | 19.97283 | 11046 ft | 328 kts | 138° |
| 2026-05-05 13:30 | 49.82963 | 19.99849 | 11301 ft | 341 kts | 138° |
| 2026-05-05 13:30 | 49.81303 | 20.02482 | 11735 ft | 347 kts | 137° |
| 2026-05-05 13:30 | 49.79625 | 20.05138 | 12310 ft | 348 kts | 137° |
| 2026-05-05 13:30 | 49.77922 | 20.07831 | 12865 ft | 350 kts | 137° |
| 2026-05-05 13:31 | 49.76231 | 20.10503 | 13393 ft | 352 kts | 137° |
| 2026-05-05 13:31 | 49.74506 | 20.13222 | 13901 ft | 355 kts | 137° |
| 2026-05-05 13:31 | 49.72765 | 20.15963 | 14396 ft | 358 kts | 137° |
| 2026-05-05 13:31 | 49.71034 | 20.18687 | 14881 ft | 360 kts | 137° |
| 2026-05-05 13:32 | 49.69283 | 20.21439 | 15347 ft | 363 kts | 137° |
| 2026-05-05 13:32 | 49.67498 | 20.24240 | 15826 ft | 365 kts | 137° |
| 2026-05-05 13:32 | 49.65743 | 20.26994 | 16294 ft | 367 kts | 137° |
| 2026-05-05 13:32 | 49.63934 | 20.29827 | 16753 ft | 369 kts | 137° |
| 2026-05-05 13:33 | 49.62140 | 20.32635 | 17196 ft | 372 kts | 137° |
| 2026-05-05 13:33 | 49.60312 | 20.35493 | 17633 ft | 374 kts | 137° |
| 2026-05-05 13:33 | 49.58508 | 20.38308 | 18059 ft | 376 kts | 137° |
| 2026-05-05 13:33 | 49.56661 | 20.41188 | 18484 ft | 377 kts | 137° |
| 2026-05-05 13:34 | 49.54819 | 20.44059 | 18858 ft | 380 kts | 137° |
| 2026-05-05 13:34 | 49.52967 | 20.46941 | 19207 ft | 383 kts | 136° |
| 2026-05-05 13:34 | 49.51089 | 20.49860 | 19556 ft | 386 kts | 136° |
| 2026-05-05 13:34 | 49.49189 | 20.52814 | 19916 ft | 389 kts | 136° |
| 2026-05-05 13:35 | 49.47294 | 20.55751 | 20262 ft | 392 kts | 136° |
| 2026-05-05 13:35 | 49.45378 | 20.58719 | 20617 ft | 394 kts | 136° |
| 2026-05-05 13:35 | 49.43432 | 20.61729 | 20964 ft | 397 kts | 136° |
| 2026-05-05 13:35 | 49.41492 | 20.64727 | 21299 ft | 399 kts | 136° |
| 2026-05-05 13:36 | 49.39522 | 20.67755 | 21629 ft | 401 kts | 137° |
| 2026-05-05 13:36 | 49.37543 | 20.70733 | 21954 ft | 403 kts | 137° |
| 2026-05-05 13:36 | 49.35523 | 20.73754 | 22272 ft | 406 kts | 137° |
| 2026-05-05 13:36 | 49.33516 | 20.76751 | 22575 ft | 408 kts | 137° |
| 2026-05-05 13:37 | 49.31480 | 20.79791 | 22879 ft | 410 kts | 137° |
| 2026-05-05 13:37 | 49.29447 | 20.82826 | 23172 ft | 412 kts | 137° |
| 2026-05-05 13:37 | 49.27406 | 20.85871 | 23458 ft | 414 kts | 137° |
| 2026-05-05 13:37 | 49.25323 | 20.88974 | 23761 ft | 416 kts | 137° |
| 2026-05-05 13:38 | 49.23262 | 20.92044 | 24052 ft | 418 kts | 137° |
| 2026-05-05 13:38 | 49.21172 | 20.95152 | 24355 ft | 420 kts | 137° |
| 2026-05-05 13:38 | 49.19071 | 20.98271 | 24639 ft | 421 kts | 137° |
| 2026-05-05 13:38 | 49.16971 | 21.01383 | 24923 ft | 423 kts | 137° |
| 2026-05-05 13:39 | 49.14858 | 21.04513 | 25187 ft | 425 kts | 137° |
| 2026-05-05 13:39 | 49.12570 | 21.07341 | 25415 ft | 425 kts | 148° |
| 2026-05-05 13:39 | 49.10004 | 21.09438 | 25655 ft | 425 kts | 159° |
| 2026-05-05 13:39 | 49.07173 | 21.10825 | 25910 ft | 425 kts | 167° |
| 2026-05-05 13:40 | 49.04331 | 21.11857 | 26168 ft | 426 kts | 168° |
| 2026-05-05 13:40 | 49.01445 | 21.12862 | 26396 ft | 428 kts | 168° |
| 2026-05-05 13:40 | 48.98533 | 21.13891 | 26626 ft | 430 kts | 168° |
| 2026-05-05 13:40 | 48.95596 | 21.14947 | 26861 ft | 432 kts | 168° |
| 2026-05-05 13:41 | 48.92692 | 21.16000 | 27086 ft | 433 kts | 167° |
| 2026-05-05 13:41 | 48.89746 | 21.17070 | 27304 ft | 435 kts | 167° |
| 2026-05-05 13:41 | 48.86845 | 21.18124 | 27563 ft | 435 kts | 167° |
| 2026-05-05 13:41 | 48.83882 | 21.19199 | 27877 ft | 435 kts | 167° |
| 2026-05-05 13:42 | 48.80960 | 21.20256 | 28182 ft | 434 kts | 167° |
| 2026-05-05 13:42 | 48.78040 | 21.21311 | 28492 ft | 434 kts | 167° |
| 2026-05-05 13:42 | 48.75098 | 21.22373 | 28792 ft | 433 kts | 167° |
| 2026-05-05 13:42 | 48.72198 | 21.23418 | 29086 ft | 433 kts | 167° |
| 2026-05-05 13:43 | 48.69277 | 21.24466 | 29374 ft | 432 kts | 168° |
| 2026-05-05 13:43 | 48.66315 | 21.25359 | 29666 ft | 431 kts | 171° |
| 2026-05-05 13:43 | 48.63382 | 21.26149 | 29965 ft | 431 kts | 171° |
| 2026-05-05 13:43 | 48.60464 | 21.26940 | 30251 ft | 430 kts | 171° |
| 2026-05-05 13:44 | 48.57500 | 21.27828 | 30532 ft | 430 kts | 168° |
| 2026-05-05 13:44 | 48.54630 | 21.28987 | 30798 ft | 431 kts | 163° |
| 2026-05-05 13:44 | 48.51784 | 21.30468 | 31062 ft | 432 kts | 160° |
| 2026-05-05 13:44 | 48.49056 | 21.32223 | 31333 ft | 432 kts | 155° |
| 2026-05-05 13:45 | 48.46364 | 21.34306 | 31606 ft | 432 kts | 151° |
| 2026-05-05 13:45 | 48.43805 | 21.36535 | 31872 ft | 432 kts | 150° |
| 2026-05-05 13:45 | 48.41208 | 21.38820 | 32132 ft | 432 kts | 150° |
| 2026-05-05 13:45 | 48.38633 | 21.41083 | 32379 ft | 432 kts | 150° |
| 2026-05-05 13:46 | 48.36043 | 21.43353 | 32633 ft | 431 kts | 150° |
| 2026-05-05 13:46 | 48.33453 | 21.45617 | 32881 ft | 431 kts | 150° |
| 2026-05-05 13:46 | 48.30857 | 21.47881 | 33129 ft | 431 kts | 150° |
| 2026-05-05 13:46 | 48.28293 | 21.50114 | 33372 ft | 430 kts | 150° |
| 2026-05-05 13:47 | 48.25693 | 21.52374 | 33614 ft | 430 kts | 150° |
| 2026-05-05 13:47 | 48.23109 | 21.54618 | 33833 ft | 430 kts | 150° |
| 2026-05-05 13:47 | 48.17943 | 21.59093 | 33915 ft | 433 kts | 150° |
| 2026-05-05 13:48 | 48.12727 | 21.63599 | 33923 ft | 433 kts | 150° |
| 2026-05-05 13:48 | 48.07544 | 21.68066 | 33927 ft | 433 kts | 151° |
| 2026-05-05 13:49 | 48.02335 | 21.72545 | 33931 ft | 433 kts | 151° |
| 2026-05-05 13:49 | 47.97136 | 21.77008 | 33935 ft | 433 kts | 151° |
| 2026-05-05 13:50 | 47.91931 | 21.81465 | 33941 ft | 433 kts | 151° |
| 2026-05-05 13:50 | 47.86716 | 21.85921 | 33944 ft | 434 kts | 151° |
| 2026-05-05 13:51 | 47.81472 | 21.90388 | 33945 ft | 434 kts | 150° |
| 2026-05-05 13:51 | 47.76274 | 21.94807 | 33946 ft | 435 kts | 150° |
| 2026-05-05 13:52 | 47.71017 | 21.99265 | 33946 ft | 435 kts | 150° |
| 2026-05-05 13:52 | 47.65788 | 22.03691 | 33948 ft | 435 kts | 150° |
| 2026-05-05 13:53 | 47.60564 | 22.08103 | 33948 ft | 434 kts | 150° |
| 2026-05-05 13:53 | 47.55327 | 22.12552 | 33948 ft | 435 kts | 149° |
| 2026-05-05 13:54 | 47.50135 | 22.17109 | 33947 ft | 435 kts | 149° |
| 2026-05-05 13:54 | 47.44940 | 22.21668 | 33946 ft | 436 kts | 149° |
| 2026-05-05 13:55 | 47.39748 | 22.26204 | 33948 ft | 436 kts | 149° |
| 2026-05-05 13:55 | 47.34546 | 22.30735 | 33949 ft | 437 kts | 149° |
| 2026-05-05 13:56 | 47.29287 | 22.35305 | 34008 ft | 442 kts | 149° |